createdAt,value
2022-10-06T00:01:32.711Z,12.20
2022-10-06T00:06:31.086Z,14.80
2022-10-06T00:08:59.412Z,12.00
2022-10-06T00:11:28.201Z,11.70
2022-10-06T00:13:56.380Z,14.50
2022-10-06T00:16:24.639Z,11.40
2022-10-06T00:18:52.845Z,11.90
2022-10-06T00:21:21.151Z,11.50
2022-10-06T00:23:50.713Z,11.80
2022-10-06T00:26:18.974Z,13.30
2022-10-06T00:28:48.568Z,12.50
2022-10-06T00:31:19.587Z,11.70
2022-10-06T00:33:49.915Z,13.60
2022-10-06T00:36:18.183Z,11.40
2022-10-06T00:38:46.490Z,11.90
2022-10-06T00:41:18.978Z,11.30
2022-10-06T00:43:52.057Z,11.10
2022-10-06T00:46:28.530Z,12.70
2022-10-06T00:49:02.020Z,11.10
2022-10-06T00:51:32.365Z,12.40
2022-10-06T00:54:01.741Z,10.90
2022-10-06T00:56:32.276Z,12.80
2022-10-06T00:59:00.574Z,12.30
2022-10-06T01:01:31.842Z,11.30
2022-10-06T01:04:07.373Z,11.90
2022-10-06T01:06:47.320Z,12.40
2022-10-06T01:09:18.772Z,11.90
2022-10-06T01:11:51.297Z,14.00
2022-10-06T01:14:21.100Z,11.50
2022-10-06T01:16:57.019Z,13.70
2022-10-06T01:19:43.731Z,12.20
2022-10-06T01:22:15.600Z,13.80
2022-10-06T01:24:50.617Z,13.90
2022-10-06T01:27:19.755Z,11.50
2022-10-06T01:29:51.328Z,11.60
2022-10-06T01:32:19.821Z,12.50
2022-10-06T01:34:48.099Z,11.10
2022-10-06T01:37:16.962Z,11.10
2022-10-06T01:39:46.543Z,12.50
2022-10-06T01:42:14.765Z,13.00
2022-10-06T01:44:42.930Z,11.10
2022-10-06T01:47:11.157Z,11.30
2022-10-06T01:49:39.427Z,11.90
2022-10-06T01:52:08.187Z,13.70
2022-10-06T01:54:36.903Z,13.70
2022-10-06T01:57:08.656Z,10.90
2022-10-06T01:59:36.914Z,11.60
2022-10-06T02:02:05.622Z,11.50
2022-10-06T02:04:33.916Z,10.70
2022-10-06T02:07:02.168Z,10.80
2022-10-06T02:09:30.654Z,12.50
2022-10-06T02:11:59.641Z,10.70
2022-10-06T02:14:32.641Z,10.80
2022-10-06T02:17:00.910Z,10.70
2022-10-06T02:19:29.135Z,10.60
2022-10-06T02:21:59.715Z,11.90
2022-10-06T02:24:28.206Z,10.80
2022-10-06T02:26:56.407Z,12.40
2022-10-06T02:29:24.901Z,10.90
2022-10-06T02:31:55.708Z,10.40
2022-10-06T02:34:24.213Z,11.50
2022-10-06T02:36:54.030Z,13.40
2022-10-06T02:39:22.476Z,13.20
2022-10-06T02:41:50.791Z,12.00
2022-10-06T02:46:50.141Z,11.90
2022-10-06T02:49:20.568Z,12.00
2022-10-06T02:51:49.429Z,11.10
2022-10-06T02:54:17.686Z,10.90
2022-10-06T02:56:46.528Z,12.40
2022-10-06T02:59:15.423Z,10.80
2022-10-06T03:01:44.511Z,12.00
2022-10-06T03:04:17.341Z,11.10
2022-10-06T03:06:46.925Z,11.10
2022-10-06T03:09:20.781Z,10.90
2022-10-06T03:11:49.321Z,12.50
2022-10-06T03:14:23.527Z,11.30
2022-10-06T03:16:52.598Z,12.70
2022-10-06T03:19:24.999Z,12.10
2022-10-06T03:21:55.362Z,10.50
2022-10-06T03:24:29.737Z,10.40
2022-10-06T03:27:00.336Z,10.50
2022-10-06T03:29:29.133Z,10.30
2022-10-06T03:31:58.610Z,10.70
2022-10-06T03:34:27.368Z,10.40
2022-10-06T03:36:59.059Z,11.20
2022-10-06T03:41:57.134Z,12.30
2022-10-06T03:44:25.366Z,10.20
2022-10-06T03:46:53.823Z,9.90
2022-10-06T03:49:22.090Z,10.20
2022-10-06T03:51:50.371Z,13.10
2022-10-06T03:54:26.105Z,11.30
2022-10-06T03:56:55.464Z,10.80
2022-10-06T03:59:23.697Z,10.30
2022-10-06T04:01:56.054Z,11.80
2022-10-06T04:07:09.695Z,9.60
2022-10-06T04:09:39.290Z,9.80
2022-10-06T04:12:07.919Z,10.40
2022-10-06T04:17:08.553Z,9.70
2022-10-06T04:22:07.412Z,12.40
2022-10-06T04:27:23.814Z,9.60
2022-10-06T04:30:06.179Z,10.60
2022-10-06T04:32:35.274Z,10.00
2022-10-06T04:35:03.798Z,9.60
2022-10-06T04:37:32.612Z,9.90
2022-10-06T04:40:02.956Z,10.40
2022-10-06T04:42:35.218Z,12.20
2022-10-06T04:45:08.285Z,10.40
2022-10-06T04:50:07.847Z,10.50
2022-10-06T04:55:07.499Z,10.30
2022-10-06T04:57:36.525Z,12.00
2022-10-06T05:00:25.154Z,9.20
2022-10-06T05:02:55.446Z,11.90
2022-10-06T05:05:24.006Z,12.00
2022-10-06T05:10:23.483Z,10.20
2022-10-06T05:17:50.205Z,9.40
2022-10-06T05:20:22.764Z,10.30
2022-10-06T05:22:51.588Z,10.80
2022-10-06T05:25:20.566Z,9.10
2022-10-06T05:27:50.520Z,11.60
2022-10-06T05:30:18.888Z,8.70
2022-10-06T05:32:50.360Z,12.00
2022-10-06T05:35:19.394Z,10.50
2022-10-06T05:37:47.788Z,8.90
2022-10-06T05:40:16.439Z,10.50
2022-10-06T05:42:44.824Z,8.70
2022-10-06T05:45:14.657Z,9.90
2022-10-06T05:47:43.269Z,8.70
2022-10-06T05:50:11.526Z,9.10
2022-10-06T05:52:40.471Z,9.10
2022-10-06T05:55:10.220Z,11.50
2022-10-06T06:00:09.182Z,10.00
2022-10-06T06:02:42.709Z,8.50
2022-10-06T06:07:41.726Z,8.80
2022-10-06T06:10:10.520Z,10.10
2022-10-06T06:15:43.319Z,9.70
2022-10-06T06:18:13.980Z,12.10
2022-10-06T06:23:10.938Z,9.10
2022-10-06T06:25:39.210Z,10.00
2022-10-06T06:30:38.543Z,9.10
2022-10-06T06:33:06.781Z,12.30
2022-10-06T06:38:11.767Z,11.40
2022-10-06T06:40:42.153Z,11.70
2022-10-06T06:46:04.296Z,12.90
2022-10-06T06:48:49.915Z,11.40
2022-10-06T06:51:23.077Z,14.20
2022-10-06T06:53:52.534Z,11.80
2022-10-06T06:56:22.367Z,12.30
2022-10-06T06:58:51.580Z,12.30
2022-10-06T07:03:58.815Z,12.90
2022-10-06T07:06:33.153Z,11.50
2022-10-06T07:11:35.247Z,13.30
2022-10-06T07:14:08.877Z,12.60
2022-10-06T07:16:54.916Z,14.40
2022-10-06T07:19:52.737Z,12.40
2022-10-06T07:22:43.986Z,14.00
2022-10-06T07:25:26.042Z,12.90
2022-10-06T07:30:41.064Z,15.00
2022-10-06T07:33:15.827Z,14.70
2022-10-06T07:35:46.169Z,17.10
2022-10-06T07:38:18.679Z,15.30
2022-10-06T07:41:17.927Z,15.30
2022-10-06T07:43:46.865Z,14.10
2022-10-06T07:48:54.752Z,14.60
2022-10-06T07:51:27.197Z,14.30
2022-10-06T07:53:58.627Z,16.00
2022-10-06T07:56:31.950Z,16.90
2022-10-06T08:01:30.331Z,14.60
2022-10-06T08:03:58.716Z,18.00
2022-10-06T08:06:27.064Z,15.10
2022-10-06T08:11:26.325Z,16.50
2022-10-06T08:16:25.865Z,17.30
2022-10-06T08:18:55.927Z,17.10
2022-10-06T08:21:27.889Z,17.40
2022-10-06T08:23:57.128Z,17.40
2022-10-06T08:26:29.292Z,19.90
2022-10-06T08:29:03.442Z,19.20
2022-10-06T08:31:33.463Z,20.80
2022-10-06T08:34:02.112Z,17.40
2022-10-06T08:36:32.264Z,17.60
2022-10-06T08:39:01.369Z,17.80
2022-10-06T08:41:41.574Z,19.70
2022-10-06T08:44:24.476Z,21.30
2022-10-06T08:47:00.509Z,17.40
2022-10-06T08:49:40.933Z,19.40
2022-10-06T08:52:23.914Z,18.90
2022-10-06T08:55:04.654Z,17.00
2022-10-06T08:57:43.692Z,17.00
2022-10-06T09:00:18.155Z,17.00
2022-10-06T09:02:51.277Z,17.00
2022-10-06T09:05:25.468Z,17.20
2022-10-06T09:08:16.750Z,20.90
2022-10-06T09:10:54.876Z,19.20
2022-10-06T09:13:32.163Z,18.50
2022-10-06T09:16:07.571Z,19.90
2022-10-06T09:19:11.000Z,21.10
2022-10-06T09:21:39.739Z,21.50
2022-10-06T09:24:13.952Z,19.50
2022-10-06T09:26:45.537Z,18.60
2022-10-06T09:29:15.739Z,18.60
2022-10-06T09:31:51.139Z,19.50
2022-10-06T09:34:29.393Z,17.70
2022-10-06T09:37:03.785Z,17.50
2022-10-06T09:39:36.804Z,20.30
2022-10-06T09:42:13.376Z,20.90
2022-10-06T09:45:00.836Z,19.50
2022-10-06T09:47:45.108Z,21.10
2022-10-06T09:50:24.070Z,19.60
2022-10-06T09:53:16.724Z,18.80
2022-10-06T09:55:56.540Z,18.20
2022-10-06T09:58:31.381Z,17.90
2022-10-06T10:01:03.942Z,17.90
2022-10-06T10:04:02.356Z,20.10
2022-10-06T10:06:37.311Z,17.90
2022-10-06T10:09:27.086Z,19.20
2022-10-06T10:12:31.186Z,18.20
2022-10-06T10:15:06.151Z,17.40
2022-10-06T10:17:43.941Z,16.80
2022-10-06T10:20:34.283Z,17.20
2022-10-06T10:23:19.161Z,16.80
2022-10-06T10:26:07.958Z,17.60
2022-10-06T10:29:05.378Z,16.80
2022-10-06T10:31:49.040Z,17.70
2022-10-06T10:34:47.686Z,17.20
2022-10-06T10:37:21.878Z,17.30
2022-10-06T10:39:57.081Z,16.40
2022-10-06T10:42:32.161Z,18.40
2022-10-06T10:45:04.313Z,16.70
2022-10-06T10:47:38.600Z,19.20
2022-10-06T10:50:22.279Z,18.90
2022-10-06T10:52:55.359Z,17.20
2022-10-06T10:55:31.824Z,17.90
2022-10-06T10:58:09.063Z,17.00
2022-10-06T11:00:42.840Z,16.50
2022-10-06T11:03:11.852Z,17.70
2022-10-06T11:06:04.801Z,19.40
2022-10-06T11:08:44.411Z,20.00
2022-10-06T11:11:21.562Z,20.10
2022-10-06T11:13:54.654Z,19.40
2022-10-06T11:16:42.813Z,19.40
2022-10-06T11:19:22.859Z,19.40
2022-10-06T11:22:02.494Z,20.20
2022-10-06T11:24:40.787Z,21.60
2022-10-06T11:27:22.642Z,22.00
2022-10-06T11:30:03.860Z,24.10
2022-10-06T11:32:46.498Z,22.10
2022-10-06T11:35:21.751Z,22.60
2022-10-06T11:38:00.890Z,22.00
2022-10-06T11:40:49.896Z,22.20
2022-10-06T11:43:32.160Z,22.80
2022-10-06T11:46:08.922Z,23.40
2022-10-06T11:48:37.587Z,23.20
2022-10-06T11:51:30.367Z,23.70
2022-10-06T11:54:00.506Z,23.50
2022-10-06T11:56:46.816Z,23.40
2022-10-06T11:59:31.724Z,22.90
2022-10-06T12:02:02.373Z,23.40
2022-10-06T12:04:31.341Z,22.30
2022-10-06T12:07:04.531Z,22.30
2022-10-06T12:09:52.302Z,23.00
2022-10-06T12:13:21.297Z,22.90
2022-10-06T12:19:19.471Z,23.00
2022-10-06T12:22:01.224Z,25.30
2022-10-06T12:24:41.513Z,23.70
2022-10-06T12:27:50.273Z,23.20
2022-10-06T12:30:24.397Z,23.20
2022-10-06T12:32:58.199Z,23.20
2022-10-06T12:35:34.165Z,22.70
2022-10-06T12:38:06.172Z,22.90
2022-10-06T12:40:55.276Z,22.60
2022-10-06T12:43:59.234Z,22.80
2022-10-06T12:46:46.673Z,24.20
2022-10-06T12:49:44.280Z,23.40
2022-10-06T12:52:47.357Z,22.90
2022-10-06T12:55:36.413Z,23.30
2022-10-06T12:58:05.111Z,23.20
2022-10-06T13:00:39.672Z,22.10
2022-10-06T13:03:16.433Z,22.70
2022-10-06T13:05:52.001Z,23.30
2022-10-06T13:08:25.296Z,23.70
2022-10-06T13:11:13.270Z,23.40
2022-10-06T13:13:49.111Z,23.40
2022-10-06T13:16:26.577Z,23.80
2022-10-06T13:18:58.007Z,22.50
2022-10-06T13:21:27.574Z,24.20
2022-10-06T13:23:56.171Z,23.90
2022-10-06T13:26:29.411Z,23.10
2022-10-06T13:28:59.091Z,23.40
2022-10-06T13:31:31.586Z,22.70
2022-10-06T13:34:02.770Z,22.50
2022-10-06T13:36:34.733Z,23.30
2022-10-06T13:39:05.609Z,22.90
2022-10-06T13:41:38.020Z,22.90
2022-10-06T13:44:29.801Z,23.00
2022-10-06T13:47:02.492Z,22.60
2022-10-06T13:49:35.809Z,22.90
2022-10-06T13:52:16.218Z,23.20
2022-10-06T13:54:51.611Z,22.90
2022-10-06T13:57:43.142Z,23.20
2022-10-06T14:00:21.795Z,23.00
2022-10-06T14:02:55.259Z,22.70
2022-10-06T14:05:34.725Z,22.50
2022-10-06T14:08:15.371Z,22.70
2022-10-06T14:10:49.987Z,22.70
2022-10-06T14:13:21.752Z,22.80
2022-10-06T14:15:52.993Z,22.70
2022-10-06T14:18:26.538Z,22.70
2022-10-06T14:20:56.487Z,23.40
2022-10-06T14:23:43.682Z,22.80
2022-10-06T14:26:14.351Z,22.60
2022-10-06T14:28:47.826Z,23.30
2022-10-06T14:31:16.985Z,22.40
2022-10-06T14:33:48.609Z,22.20
2022-10-06T14:36:20.418Z,22.40
2022-10-06T14:38:51.086Z,22.20
2022-10-06T14:41:24.590Z,21.80
2022-10-06T14:43:56.275Z,22.00
2022-10-06T14:46:25.361Z,22.10
2022-10-06T14:48:55.792Z,22.10
2022-10-06T14:51:26.097Z,21.50
2022-10-06T14:53:56.492Z,21.20
2022-10-06T14:56:28.852Z,20.20
2022-10-06T14:58:57.841Z,19.30
2022-10-06T15:01:28.209Z,18.80
2022-10-06T15:04:00.497Z,18.50
2022-10-06T15:06:47.428Z,18.60
2022-10-06T15:09:15.919Z,18.30
2022-10-06T15:11:44.312Z,18.00
2022-10-06T15:16:43.732Z,17.00
2022-10-06T15:19:13.864Z,17.70
2022-10-06T15:21:45.297Z,17.20
2022-10-06T15:24:16.632Z,16.70
2022-10-06T15:27:03.320Z,18.20
2022-10-06T15:29:32.160Z,17.80
2022-10-06T15:32:00.415Z,17.00
2022-10-06T15:34:33.482Z,17.40
2022-10-06T15:37:02.790Z,17.50
2022-10-06T15:39:33.193Z,17.40
2022-10-06T15:42:01.967Z,18.50
2022-10-06T15:44:34.591Z,17.80
2022-10-06T15:47:05.118Z,16.80
2022-10-06T15:49:40.246Z,17.30
2022-10-06T15:52:11.688Z,17.20
2022-10-06T15:54:41.782Z,17.00
2022-10-06T15:57:16.338Z,16.20
2022-10-06T15:59:46.328Z,16.50
2022-10-06T16:02:17.145Z,15.90
2022-10-06T16:05:15.330Z,16.00
2022-10-06T16:10:13.109Z,14.90
2022-10-06T16:15:11.136Z,15.10
2022-10-06T16:20:11.611Z,14.80
2022-10-06T16:22:40.165Z,13.80
2022-10-06T16:25:09.642Z,13.60
2022-10-06T16:27:39.363Z,15.70
2022-10-06T16:30:09.633Z,15.20
2022-10-06T16:32:38.113Z,14.40
2022-10-06T16:35:10.478Z,13.60
2022-10-06T16:42:43.322Z,14.10
2022-10-06T16:45:14.534Z,13.50
2022-10-06T16:50:12.918Z,11.70
2022-10-06T16:52:41.422Z,11.70
2022-10-06T16:55:10.017Z,11.30
2022-10-06T16:57:38.233Z,11.10
2022-10-06T17:00:07.600Z,13.20
2022-10-06T17:05:06.021Z,12.70
2022-10-06T17:07:36.075Z,10.80
2022-10-06T17:10:21.241Z,11.20
2022-10-06T17:12:49.726Z,12.70
2022-10-06T17:20:16.902Z,11.90
2022-10-06T17:22:46.565Z,10.80
2022-10-06T17:25:15.229Z,9.50
2022-10-06T17:27:43.545Z,9.80
2022-10-06T17:30:14.818Z,10.00
2022-10-06T17:32:44.168Z,9.70
2022-10-06T17:35:12.335Z,11.10
2022-10-06T17:40:11.522Z,10.00
2022-10-06T17:42:41.474Z,9.00
2022-10-06T17:50:09.003Z,8.00
2022-10-06T17:52:39.032Z,11.30
2022-10-06T17:55:08.892Z,10.40
2022-10-06T18:00:09.845Z,8.10
2022-10-06T18:02:41.631Z,7.70
2022-10-06T18:05:10.457Z,9.90
2022-10-06T18:12:56.296Z,7.80
2022-10-06T18:17:53.339Z,7.20
2022-10-06T18:22:50.323Z,8.70
2022-10-06T18:27:53.012Z,7.70
2022-10-06T18:30:26.962Z,8.60
2022-10-06T18:36:15.765Z,10.60
2022-10-06T18:38:38.731Z,9.30
2022-10-06T18:43:37.357Z,10.40
2022-10-06T18:46:26.297Z,8.30
2022-10-06T18:51:31.297Z,8.50
2022-10-06T18:54:01.819Z,10.40
2022-10-06T18:56:33.979Z,8.60
2022-10-06T19:04:05.406Z,8.80
2022-10-06T19:09:05.472Z,10.20
2022-10-06T19:11:51.790Z,7.10
2022-10-06T19:14:22.342Z,8.30
2022-10-06T19:16:56.245Z,9.70
2022-10-06T19:21:59.391Z,7.40
2022-10-06T19:24:30.015Z,9.20
2022-10-06T19:32:00.444Z,5.40
2022-10-06T19:34:28.745Z,5.90
2022-10-06T19:39:30.591Z,5.00
2022-10-06T19:42:16.956Z,8.80
2022-10-06T19:44:45.603Z,8.30
2022-10-06T19:47:16.417Z,6.90
2022-10-06T19:49:45.250Z,5.50
2022-10-06T19:52:14.549Z,6.80
2022-10-06T19:54:42.872Z,5.60
2022-10-06T19:59:40.815Z,6.30
2022-10-06T20:02:10.194Z,6.00
2022-10-06T20:04:40.099Z,6.70
2022-10-06T20:07:09.996Z,6.60
2022-10-06T20:09:38.319Z,6.60
2022-10-06T20:14:36.292Z,5.70
2022-10-06T20:19:33.317Z,8.30
2022-10-06T20:22:02.922Z,5.70
2022-10-06T20:24:31.845Z,6.60
2022-10-06T20:29:29.559Z,7.30
2022-10-06T20:31:59.357Z,7.60
2022-10-06T20:34:31.917Z,5.30
2022-10-06T20:37:03.342Z,5.30
2022-10-06T20:39:51.728Z,8.00
2022-10-06T20:42:21.556Z,4.70
2022-10-06T20:44:50.044Z,7.70
2022-10-06T20:49:46.830Z,5.30
2022-10-06T20:52:16.350Z,4.70
2022-10-06T20:54:44.531Z,4.60
2022-10-06T20:57:13.043Z,5.60
2022-10-06T20:59:41.602Z,5.00
2022-10-06T21:02:11.583Z,5.80
2022-10-06T21:04:43.640Z,5.80
2022-10-06T21:07:12.284Z,4.30
2022-10-06T21:09:41.936Z,4.40
2022-10-06T21:12:10.318Z,4.60
2022-10-06T21:14:42.266Z,5.80
2022-10-06T21:17:10.661Z,6.80
2022-10-06T21:19:39.110Z,6.60
2022-10-06T21:22:07.498Z,6.70
2022-10-06T21:24:35.917Z,4.50
2022-10-06T21:27:05.782Z,5.90
2022-10-06T21:29:34.116Z,4.50
2022-10-06T21:32:02.539Z,4.40
2022-10-06T21:34:30.937Z,7.00
2022-10-06T21:36:59.335Z,7.30
2022-10-06T21:39:27.715Z,6.20
2022-10-06T21:41:56.279Z,3.90
2022-10-06T21:44:25.995Z,4.20
2022-10-06T21:46:56.652Z,4.30
2022-10-06T21:49:28.338Z,4.80
2022-10-06T21:51:58.465Z,5.90
2022-10-06T21:54:26.820Z,7.00
2022-10-06T21:56:55.148Z,4.80
2022-10-06T21:59:23.539Z,4.90
2022-10-06T22:01:53.395Z,5.40
2022-10-06T22:04:21.736Z,5.10
2022-10-06T22:06:50.824Z,4.70
2022-10-06T22:09:21.602Z,7.10
2022-10-06T22:11:50.816Z,3.50
2022-10-06T22:14:20.864Z,7.00
2022-10-06T22:16:49.391Z,4.20
2022-10-06T22:19:19.339Z,6.10
2022-10-06T22:21:49.581Z,6.80
2022-10-06T22:24:20.828Z,3.90
2022-10-06T22:26:50.350Z,3.80
2022-10-06T22:29:21.017Z,3.80
2022-10-06T22:31:50.172Z,3.80
2022-10-06T22:34:21.733Z,6.90
2022-10-06T22:36:50.267Z,3.70
2022-10-06T22:39:18.764Z,3.70
2022-10-06T22:41:47.097Z,4.70
2022-10-06T22:44:15.408Z,3.70
2022-10-06T22:46:43.759Z,6.40
2022-10-06T22:49:12.425Z,4.50
2022-10-06T22:51:42.190Z,4.70
2022-10-06T22:54:19.767Z,6.70
2022-10-06T22:56:48.089Z,6.00
2022-10-06T22:59:16.440Z,3.60
2022-10-06T23:01:44.761Z,6.00
2022-10-06T23:04:13.080Z,5.70
2022-10-06T23:06:42.792Z,6.00
2022-10-06T23:11:41.334Z,4.20
2022-10-06T23:14:17.572Z,4.30
2022-10-06T23:16:45.957Z,6.00
2022-10-06T23:19:14.517Z,6.40
2022-10-06T23:24:11.782Z,3.20
2022-10-06T23:26:40.145Z,3.90
2022-10-06T23:29:08.429Z,5.40
2022-10-06T23:31:38.177Z,4.60
2022-10-06T23:34:06.564Z,4.70
2022-10-06T23:36:34.937Z,6.40
2022-10-06T23:39:03.231Z,3.20
2022-10-06T23:41:31.719Z,4.70
2022-10-06T23:44:00.302Z,3.80
2022-10-06T23:46:28.655Z,4.70
2022-10-06T23:48:58.583Z,6.20
2022-10-06T23:51:27.260Z,5.30
2022-10-06T23:53:55.556Z,3.30
2022-10-06T23:56:24.010Z,3.00
